Time;durP1;ratioP1;P1;durP2;ratioP2;P2;SDS_P1;SDS_P2;PMS_P1;PMS_P2;Temp;Humidity;BMP_temperature;BMP_pressure;BME280_temperature;BME280_humidity;BME280_pressure;Samples;Min_cycle;Max_cycle;Signal;HPM_P1;HPM_P2
2021/11/06 00:02:06;;;;;;;15.40;10.90;;;6.20;99.90;;;;;;4950568;29;20192;-61
2021/11/06 00:04:31;;;;;;;13.60;9.27;;;6.10;99.90;;;;;;4950354;29;20182;-63
2021/11/06 00:06:57;;;;;;;14.90;10.50;;;6.10;99.90;;;;;;4950774;29;20216;-62
2021/11/06 00:09:23;;;;;;;17.13;11.60;;;6.00;99.90;;;;;;4950820;29;20178;-62
2021/11/06 00:11:49;;;;;;;13.83;10.53;;;6.00;99.90;;;;;;4950312;29;20201;-63
2021/11/06 00:14:14;;;;;;;15.70;10.95;;;6.00;99.90;;;;;;4950561;29;20170;-62
2021/11/06 00:16:40;;;;;;;15.93;11.00;;;5.90;99.90;;;;;;4947519;29;20377;-62
2021/11/06 00:19:05;;;;;;;15.80;11.53;;;5.90;99.90;;;;;;4949987;29;20217;-62
2021/11/06 00:21:31;;;;;;;17.57;11.07;;;5.90;99.90;;;;;;4949841;29;20637;-62
2021/11/06 00:23:56;;;;;;;19.17;11.60;;;5.90;99.90;;;;;;4944779;29;20204;-62
2021/11/06 00:26:22;;;;;;;14.67;10.70;;;5.90;99.90;;;;;;4938757;29;20568;-63
2021/11/06 00:28:47;;;;;;;19.37;11.90;;;5.80;99.90;;;;;;4950806;29;20192;-62
2021/11/06 00:31:13;;;;;;;17.30;10.43;;;5.70;99.90;;;;;;4950490;28;20201;-63
2021/11/06 00:33:39;;;;;;;21.43;12.27;;;5.70;99.90;;;;;;4952639;29;20213;-63
2021/11/06 00:36:04;;;;;;;18.00;11.90;;;5.70;99.90;;;;;;4947378;29;20571;-50
2021/11/06 00:38:30;;;;;;;15.83;11.70;;;5.70;99.90;;;;;;4953936;29;20224;-63
2021/11/06 00:40:56;;;;;;;18.43;12.27;;;5.70;99.90;;;;;;4954329;29;20205;-63
2021/11/06 00:43:22;;;;;;;16.63;10.30;;;5.80;99.90;;;;;;4953576;29;20190;-63
2021/11/06 00:45:47;;;;;;;19.67;11.53;;;5.70;99.90;;;;;;4945148;29;20242;-63
2021/11/06 00:48:13;;;;;;;14.87;10.73;;;5.70;99.90;;;;;;4953478;29;20217;-63
2021/11/06 00:50:38;;;;;;;17.83;10.63;;;5.60;99.90;;;;;;4953644;29;20213;-64
2021/11/06 00:53:04;;;;;;;14.07;10.00;;;5.60;99.90;;;;;;4953135;29;20186;-62
2021/11/06 00:55:30;;;;;;;19.20;11.13;;;5.50;99.90;;;;;;4953164;29;20260;-63
2021/11/06 00:57:55;;;;;;;22.03;12.80;;;5.50;99.90;;;;;;4953758;29;20185;-63
2021/11/06 01:00:21;;;;;;;23.27;12.30;;;5.40;99.90;;;;;;4952376;29;20217;-63
2021/11/06 01:02:48;;;;;;;16.50;11.27;;;5.40;99.90;;;;;;4953900;29;20169;-62
2021/11/06 01:05:14;;;;;;;14.98;10.55;;;5.40;99.90;;;;;;4954236;29;20180;-63
2021/11/06 01:07:41;;;;;;;16.45;10.10;;;5.40;99.90;;;;;;4953783;29;20214;-63
2021/11/06 01:10:09;;;;;;;16.25;11.65;;;5.50;99.90;;;;;;4953978;29;20827;-62
2021/11/06 01:12:35;;;;;;;16.23;11.95;;;5.50;99.90;;;;;;4953544;29;20216;-62
2021/11/06 01:15:01;;;;;;;19.50;12.60;;;5.60;99.90;;;;;;4944733;29;20522;-62
2021/11/06 01:17:26;;;;;;;19.20;11.70;;;5.70;99.90;;;;;;4955376;28;20186;-62
2021/11/06 01:19:52;;;;;;;17.63;10.37;;;5.70;99.90;;;;;;4952743;28;20195;-62
2021/11/06 01:22:17;;;;;;;21.60;12.33;;;5.80;99.90;;;;;;4953126;29;20186;-63
2021/11/06 01:24:43;;;;;;;18.93;11.27;;;5.90;99.90;;;;;;4941952;29;20186;-63
2021/11/06 01:27:11;;;;;;;16.70;12.00;;;5.90;99.90;;;;;;4952467;29;20633;-63
2021/11/06 01:29:38;;;;;;;17.10;11.50;;;6.00;99.90;;;;;;4951249;29;20197;-63
2021/11/06 01:32:06;;;;;;;16.90;11.75;;;6.00;99.90;;;;;;4953349;29;20214;-63
2021/11/06 01:34:33;;;;;;;16.57;11.43;;;6.10;99.90;;;;;;4934304;29;20233;-63
2021/11/06 01:36:58;;;;;;;15.13;10.93;;;6.10;99.90;;;;;;4952592;29;20433;-63
2021/11/06 01:39:24;;;;;;;16.83;10.30;;;6.20;99.90;;;;;;4945265;29;20246;-63
2021/11/06 01:41:49;;;;;;;15.27;10.97;;;6.20;99.90;;;;;;4951119;29;20641;-62
2021/11/06 01:44:15;;;;;;;16.60;10.80;;;6.30;99.90;;;;;;4952488;29;20186;-63
2021/11/06 01:46:40;;;;;;;19.97;10.93;;;6.30;99.90;;;;;;4951837;29;20190;-63
2021/11/06 01:49:07;;;;;;;17.10;11.97;;;6.30;99.90;;;;;;4953066;29;20276;-61
2021/11/06 01:51:32;;;;;;;14.57;10.13;;;6.40;99.90;;;;;;4944055;29;20405;-62
2021/11/06 01:53:58;;;;;;;18.67;10.60;;;6.40;99.90;;;;;;4953000;29;20504;-62
2021/11/06 01:56:24;;;;;;;16.00;10.73;;;6.40;99.90;;;;;;4952363;29;20178;-62
2021/11/06 01:58:50;;;;;;;15.10;10.20;;;6.50;99.90;;;;;;4952250;29;20639;-63
2021/11/06 02:01:15;;;;;;;17.30;10.37;;;6.50;99.90;;;;;;4952275;29;20440;-62
2021/11/06 02:03:41;;;;;;;16.20;10.57;;;6.60;99.90;;;;;;4941242;29;20186;-61
2021/11/06 02:06:07;;;;;;;17.97;10.93;;;6.60;99.90;;;;;;4950745;29;20945;-62
2021/11/06 02:08:32;;;;;;;17.30;10.03;;;6.70;99.90;;;;;;4952759;29;20217;-63
2021/11/06 02:10:58;;;;;;;16.97;9.90;;;6.70;99.90;;;;;;4950993;29;20260;-62
2021/11/06 02:13:24;;;;;;;15.30;9.67;;;6.80;99.90;;;;;;4951324;29;20197;-62
2021/11/06 02:15:50;;;;;;;14.40;9.67;;;6.90;99.90;;;;;;4952495;29;20909;-62
2021/11/06 02:18:15;;;;;;;16.00;9.97;;;7.00;99.90;;;;;;4952226;29;20186;-61
2021/11/06 02:20:49;;;;;;;14.70;9.90;;;7.00;99.90;;;;;;4941911;29;20202;-62
2021/11/06 02:23:15;;;;;;;15.90;10.33;;;7.00;99.90;;;;;;4952009;29;20205;-62
2021/11/06 02:25:40;;;;;;;16.13;9.30;;;7.00;99.90;;;;;;4952157;29;20446;-63
2021/11/06 02:28:06;;;;;;;15.97;9.57;;;7.00;99.90;;;;;;4952394;29;21095;-63
2021/11/06 02:30:32;;;;;;;11.67;8.20;;;7.10;99.90;;;;;;4951339;29;20197;-63
2021/11/06 02:32:58;;;;;;;12.67;8.67;;;7.10;99.90;;;;;;4952120;29;20476;-63
2021/11/06 02:35:24;;;;;;;12.53;8.87;;;7.20;99.90;;;;;;4946781;29;20175;-62
2021/11/06 02:37:49;;;;;;;11.63;7.97;;;7.30;99.90;;;;;;4945130;29;20443;-62
2021/11/06 02:40:15;;;;;;;12.20;7.70;;;7.30;99.90;;;;;;4951225;29;20190;-62
2021/11/06 02:42:41;;;;;;;10.60;7.57;;;7.40;99.90;;;;;;4952003;29;20197;-62
2021/11/06 02:45:09;;;;;;;11.87;8.10;;;7.50;99.90;;;;;;4950422;29;20936;-62
2021/11/06 02:47:35;;;;;;;9.10;7.17;;;7.60;99.90;;;;;;4953401;29;20433;-62
2021/11/06 02:50:01;;;;;;;10.63;6.70;;;7.70;99.90;;;;;;4945523;29;20434;-61
2021/11/06 02:52:26;;;;;;;10.17;6.83;;;7.80;99.90;;;;;;4945961;29;20524;-63
2021/11/06 02:54:52;;;;;;;11.23;7.87;;;7.80;99.90;;;;;;4952048;28;20645;-62
2021/11/06 02:57:18;;;;;;;7.40;6.07;;;7.90;99.90;;;;;;4953008;29;20645;-63
2021/11/06 02:59:43;;;;;;;9.43;6.37;;;7.80;99.90;;;;;;4952703;29;20617;-63
2021/11/06 03:02:09;;;;;;;8.03;5.93;;;7.80;99.90;;;;;;4947086;29;20204;-63
2021/11/06 03:04:38;;;;;;;9.67;6.37;;;8.00;99.90;;;;;;4944328;29;20195;-63
2021/11/06 03:07:05;;;;;;;10.67;6.73;;;8.00;99.90;;;;;;4952770;29;20657;-62
2021/11/06 03:09:31;;;;;;;8.83;6.90;;;8.10;99.90;;;;;;4949379;29;20436;-62
2021/11/06 03:11:58;;;;;;;8.20;6.33;;;8.10;99.90;;;;;;4949154;29;20528;-63
2021/11/06 03:14:25;;;;;;;8.30;6.37;;;8.20;99.90;;;;;;4952840;29;20524;-63
2021/11/06 03:16:51;;;;;;;9.53;6.00;;;8.20;99.90;;;;;;4953500;29;20433;-62
2021/11/06 03:19:16;;;;;;;6.67;5.20;;;8.30;99.90;;;;;;4951641;29;20461;-61
2021/11/06 03:21:43;;;;;;;8.83;5.80;;;8.30;99.90;;;;;;4942073;29;20653;-62
2021/11/06 03:24:08;;;;;;;8.27;6.07;;;8.30;99.90;;;;;;4952267;29;20196;-62
2021/11/06 03:26:34;;;;;;;8.70;6.80;;;8.30;99.90;;;;;;4951238;29;20441;-62
2021/11/06 03:29:00;;;;;;;7.37;6.17;;;8.40;99.90;;;;;;4952936;29;20181;-62
2021/11/06 03:31:25;;;;;;;7.10;5.90;;;8.50;99.90;;;;;;4951990;29;20209;-62
2021/11/06 03:33:51;;;;;;;6.90;5.90;;;8.50;99.90;;;;;;4941139;29;20607;-62
2021/11/06 03:36:17;;;;;;;7.73;5.73;;;8.50;99.90;;;;;;4942093;29;20245;-65
2021/11/06 03:38:42;;;;;;;7.47;5.43;;;8.60;99.90;;;;;;4945247;29;20272;-62
2021/11/06 03:41:09;;;;;;;6.43;5.10;;;8.50;99.90;;;;;;4947868;28;20190;-64
2021/11/06 03:43:35;;;;;;;7.23;5.87;;;8.50;99.90;;;;;;4945306;29;20205;-62
2021/11/06 03:46:00;;;;;;;11.10;5.93;;;8.50;99.90;;;;;;4951294;29;20484;-65
2021/11/06 03:48:27;;;;;;;8.13;5.90;;;8.50;99.90;;;;;;4951355;29;20439;-64
2021/11/06 03:50:54;;;;;;;7.67;6.43;;;8.60;99.90;;;;;;4949726;29;20232;-62
2021/11/06 03:53:20;;;;;;;7.37;5.90;;;8.70;99.90;;;;;;4950760;29;20943;-61
2021/11/06 03:55:45;;;;;;;8.17;5.90;;;8.70;99.90;;;;;;4950741;29;20429;-65
2021/11/06 03:58:11;;;;;;;9.23;5.70;;;8.60;99.90;;;;;;4949887;29;20425;-61
2021/11/06 04:00:37;;;;;;;9.67;6.73;;;8.60;99.90;;;;;;4950731;29;20193;-61
2021/11/06 04:03:02;;;;;;;9.97;6.23;;;8.60;99.90;;;;;;4950300;29;20684;-61
2021/11/06 04:05:28;;;;;;;9.70;6.70;;;8.70;99.90;;;;;;4950754;28;20501;-62
2021/11/06 04:07:53;;;;;;;10.33;7.57;;;8.60;99.90;;;;;;4943649;29;20700;-63
2021/11/06 04:10:19;;;;;;;9.93;6.30;;;8.60;99.90;;;;;;4954518;29;20185;-63
2021/11/06 04:12:45;;;;;;;8.70;5.90;;;8.70;99.90;;;;;;4954005;29;20205;-61
2021/11/06 04:15:12;;;;;;;8.07;6.33;;;8.70;99.90;;;;;;4954140;29;20573;-61
2021/11/06 04:17:38;;;;;;;10.40;6.90;;;8.60;99.90;;;;;;4954586;29;20508;-63
2021/11/06 04:20:08;;;;;;;7.77;6.43;;;8.70;99.90;;;;;;4953524;29;20488;-66
2021/11/06 04:22:34;;;;;;;9.23;6.90;;;8.70;99.90;;;;;;4954402;29;20430;-62
2021/11/06 04:25:00;;;;;;;8.27;5.70;;;8.70;99.90;;;;;;4952677;29;20487;-61
2021/11/06 04:27:26;;;;;;;8.10;6.40;;;8.70;99.90;;;;;;4954314;29;20468;-61
2021/11/06 04:29:52;;;;;;;8.10;6.03;;;8.70;99.90;;;;;;4953910;29;20473;-61
2021/11/06 04:32:17;;;;;;;9.33;6.20;;;8.60;99.90;;;;;;4953553;29;20218;-63
2021/11/06 04:34:43;;;;;;;9.63;6.73;;;8.60;99.90;;;;;;4952889;29;20538;-65
2021/11/06 04:37:09;;;;;;;7.30;6.00;;;8.60;99.90;;;;;;4953417;29;20637;-63
2021/11/06 04:39:34;;;;;;;8.77;7.23;;;8.60;99.90;;;;;;4954338;29;20197;-63
2021/11/06 04:42:00;;;;;;;9.33;6.50;;;8.70;99.90;;;;;;4951322;29;20201;-64
2021/11/06 04:44:26;;;;;;;7.30;6.40;;;8.70;99.90;;;;;;4951799;29;20192;-66
2021/11/06 04:46:51;;;;;;;10.23;7.60;;;8.70;99.90;;;;;;4953546;29;20217;-63
2021/11/06 04:49:17;;;;;;;9.30;7.13;;;8.70;99.90;;;;;;4953835;29;20240;-61
2021/11/06 04:51:44;;;;;;;9.83;6.57;;;8.70;99.90;;;;;;4936100;29;20249;-65
2021/11/06 04:54:10;;;;;;;8.23;6.23;;;8.50;99.90;;;;;;4953069;29;20647;-60
2021/11/06 04:56:35;;;;;;;8.67;6.30;;;8.50;99.90;;;;;;4953312;29;20421;-62
2021/11/06 04:59:01;;;;;;;9.23;6.30;;;8.40;99.90;;;;;;4952190;29;20484;-63
2021/11/06 05:01:28;;;;;;;9.57;7.30;;;8.30;99.90;;;;;;4953921;29;20266;-61
2021/11/06 05:03:54;;;;;;;10.10;7.10;;;8.30;99.90;;;;;;4953352;29;20181;-61
2021/11/06 05:06:19;;;;;;;15.27;9.10;;;8.30;99.90;;;;;;4953686;29;20473;-61
2021/11/06 05:08:45;;;;;;;12.00;6.73;;;8.30;99.90;;;;;;4936544;29;20185;-59
2021/11/06 05:11:10;;;;;;;10.03;7.70;;;8.10;99.90;;;;;;4951597;29;20221;-61
2021/11/06 05:13:36;;;;;;;9.43;6.77;;;8.00;99.90;;;;;;4954277;29;20502;-61
2021/11/06 05:16:02;;;;;;;10.47;7.23;;;8.00;99.90;;;;;;4953496;29;20178;-61
2021/11/06 05:18:27;;;;;;;15.93;8.40;;;7.90;99.90;;;;;;4952984;28;20276;-61
2021/11/06 05:20:53;;;;;;;11.50;8.30;;;7.80;99.90;;;;;;4952900;29;20201;-61
2021/11/06 05:23:19;;;;;;;9.63;8.00;;;7.70;99.90;;;;;;4954150;29;20919;-64
2021/11/06 05:25:46;;;;;;;9.77;7.40;;;7.60;99.90;;;;;;4950703;29;20453;-61
2021/11/06 05:28:12;;;;;;;9.20;6.57;;;7.40;99.90;;;;;;4947556;29;20433;-61
2021/11/06 05:30:38;;;;;;;9.97;7.20;;;7.30;99.90;;;;;;4952733;28;20445;-61
2021/11/06 05:33:04;;;;;;;10.33;7.27;;;7.30;99.90;;;;;;4952107;29;20472;-61
2021/11/06 05:35:29;;;;;;;11.43;7.37;;;7.30;99.90;;;;;;4953019;29;20185;-61
2021/11/06 05:37:55;;;;;;;10.33;7.63;;;7.10;99.90;;;;;;4952137;29;20441;-61
2021/11/06 05:40:21;;;;;;;12.20;8.00;;;7.10;99.90;;;;;;4935771;29;20236;-61
2021/11/06 05:42:47;;;;;;;11.63;8.07;;;7.00;99.90;;;;;;4953217;29;20504;-61
2021/11/06 05:45:13;;;;;;;10.13;7.17;;;7.00;99.90;;;;;;4952882;29;20524;-61
2021/11/06 05:47:38;;;;;;;11.53;8.40;;;7.00;99.90;;;;;;4953467;29;20260;-61
2021/11/06 05:50:06;;;;;;;15.93;9.27;;;6.90;99.90;;;;;;4952942;29;20268;-61
2021/11/06 05:52:32;;;;;;;13.07;9.20;;;6.80;99.90;;;;;;4952188;29;20224;-61
2021/11/06 05:54:58;;;;;;;12.93;8.33;;;6.90;99.90;;;;;;4952094;29;20190;-52
2021/11/06 05:57:23;;;;;;;11.63;8.17;;;6.80;99.90;;;;;;4952172;29;20492;-61
2021/11/06 05:59:49;;;;;;;15.07;8.70;;;6.70;99.90;;;;;;4952047;29;20177;-62
2021/11/06 06:02:14;;;;;;;13.20;8.57;;;6.60;99.90;;;;;;4950739;29;20248;-62
2021/11/06 06:04:40;;;;;;;14.80;8.97;;;6.60;99.90;;;;;;4952411;29;20204;-61
2021/11/06 06:07:05;;;;;;;14.93;9.80;;;6.50;99.90;;;;;;4934599;29;20295;-61
2021/11/06 06:09:31;;;;;;;17.27;9.77;;;6.50;99.90;;;;;;4952533;29;20185;-61
2021/11/06 06:11:56;;;;;;;14.57;9.17;;;6.50;99.90;;;;;;4950521;29;20751;-61
2021/11/06 06:14:22;;;;;;;12.57;10.00;;;6.50;99.90;;;;;;4944023;29;20205;-61
2021/11/06 06:16:48;;;;;;;13.43;9.13;;;6.40;99.90;;;;;;4952395;29;20181;-64
2021/11/06 06:19:14;;;;;;;15.03;10.90;;;6.40;99.90;;;;;;4949669;29;20182;-62
2021/11/06 06:21:39;;;;;;;14.57;10.07;;;6.40;99.90;;;;;;4947918;29;20260;-61
2021/11/06 06:24:05;;;;;;;15.37;9.90;;;6.30;99.90;;;;;;4943061;29;20197;-60
2021/11/06 06:26:30;;;;;;;13.50;9.40;;;6.50;99.90;;;;;;4940826;29;20566;-60
2021/11/06 06:28:56;;;;;;;13.87;9.83;;;6.50;99.90;;;;;;4945141;28;21085;-61
2021/11/06 06:31:21;;;;;;;15.20;9.63;;;6.50;99.90;;;;;;4942862;28;20215;-53
2021/11/06 06:33:47;;;;;;;15.63;10.90;;;6.50;99.90;;;;;;4923887;29;20301;-50
2021/11/06 06:36:13;;;;;;;15.80;9.87;;;6.60;99.90;;;;;;4939770;29;20264;-46
2021/11/06 06:38:38;;;;;;;14.63;9.40;;;6.80;99.90;;;;;;4924819;29;20189;-52
2021/11/06 06:41:04;;;;;;;14.50;9.33;;;6.80;99.90;;;;;;4940532;29;20185;-51
2021/11/06 06:43:29;;;;;;;14.53;9.30;;;6.90;99.90;;;;;;4939005;29;20201;-48
2021/11/06 06:45:55;;;;;;;14.57;10.00;;;7.00;99.90;;;;;;4940791;29;20193;-51
2021/11/06 06:48:21;;;;;;;12.93;8.50;;;7.10;99.90;;;;;;4940581;29;20253;-54
2021/11/06 06:50:49;;;;;;;13.07;8.90;;;7.10;99.90;;;;;;4924104;29;20487;-50
2021/11/06 06:53:16;;;;;;;13.57;9.30;;;7.20;99.90;;;;;;4941253;29;20197;-50
2021/11/06 06:55:42;;;;;;;13.60;8.73;;;7.30;99.90;;;;;;4941049;29;20947;-48
2021/11/06 06:58:08;;;;;;;14.13;8.53;;;7.30;99.90;;;;;;4941665;29;20441;-50
2021/11/06 07:00:33;;;;;;;10.80;7.80;;;7.30;99.90;;;;;;4941583;29;20192;-50
2021/11/06 07:02:59;;;;;;;12.17;9.50;;;7.30;99.90;;;;;;4942387;29;20220;-52
2021/11/06 07:05:24;;;;;;;14.27;9.67;;;7.30;99.90;;;;;;4942516;29;20196;-48
2021/11/06 07:07:52;;;;;;;15.23;9.53;;;7.30;99.90;;;;;;4942421;29;20580;-52
2021/11/06 07:10:18;;;;;;;10.50;8.70;;;7.30;99.90;;;;;;4942889;29;20190;-46
2021/11/06 07:12:44;;;;;;;11.60;8.00;;;7.30;99.90;;;;;;4942138;29;20492;-47
2021/11/06 07:15:11;;;;;;;12.60;8.80;;;7.20;99.90;;;;;;4942232;29;20252;-48
2021/11/06 07:17:36;;;;;;;12.07;8.57;;;7.20;99.90;;;;;;4939952;29;20852;-51
2021/11/06 07:20:04;;;;;;;13.20;9.00;;;7.20;99.90;;;;;;4939060;28;20445;-46
2021/11/06 07:22:29;;;;;;;12.70;8.80;;;7.20;99.90;;;;;;4939472;29;20196;-48
2021/11/06 07:24:55;;;;;;;13.50;9.20;;;7.20;99.90;;;;;;4949674;29;20414;-47
2021/11/06 07:27:20;;;;;;;12.27;9.30;;;7.30;99.90;;;;;;4951036;29;20192;-50
2021/11/06 07:29:46;;;;;;;13.93;9.87;;;7.30;99.90;;;;;;4950630;29;20221;-48
2021/11/06 07:32:12;;;;;;;12.40;9.63;;;7.40;99.90;;;;;;4946914;29;20210;-51
2021/11/06 07:34:38;;;;;;;14.47;8.63;;;7.50;99.90;;;;;;4928175;29;20230;-50
2021/11/06 07:37:04;;;;;;;14.67;9.00;;;7.70;99.90;;;;;;4922765;29;20501;-46
2021/11/06 07:39:29;;;;;;;10.23;8.17;;;7.90;99.90;;;;;;4925284;29;20174;-46
2021/11/06 07:41:55;;;;;;;10.60;8.20;;;8.10;99.90;;;;;;4927788;29;20545;-47
2021/11/06 07:44:20;;;;;;;11.00;8.43;;;8.40;99.90;;;;;;4929305;29;20190;-48
2021/11/06 07:46:46;;;;;;;10.53;8.47;;;8.90;99.90;;;;;;4928499;29;20186;-50
2021/11/06 07:49:12;;;;;;;11.17;8.10;;;9.40;99.90;;;;;;4929595;29;20666;-49
2021/11/06 07:51:37;;;;;;;9.33;7.93;;;9.90;99.90;;;;;;4928091;29;20206;-49
2021/11/06 07:54:03;;;;;;;11.83;7.77;;;10.60;99.90;;;;;;4929681;29;20274;-50
2021/11/06 07:56:28;;;;;;;9.20;7.87;;;11.20;99.90;;;;;;4929738;29;20480;-50
2021/11/06 07:58:55;;;;;;;10.03;8.33;;;11.90;99.90;;;;;;4931125;29;20183;-49
2021/11/06 08:01:21;;;;;;;8.63;7.73;;;12.30;99.90;;;;;;4930307;29;20190;-46
2021/11/06 08:03:47;;;;;;;10.40;9.00;;;12.50;99.90;;;;;;4930729;29;20898;-50
2021/11/06 08:06:12;;;;;;;9.87;8.77;;;12.50;99.90;;;;;;4931090;29;20193;-47
2021/11/06 08:08:39;;;;;;;10.27;8.97;;;12.50;99.90;;;;;;4930644;29;21024;-48
2021/11/06 08:11:04;;;;;;;9.07;8.17;;;12.40;99.90;;;;;;4929721;29;20237;-49
2021/11/06 08:13:32;;;;;;;11.27;10.07;;;12.00;99.90;;;;;;4930933;29;20580;-51
2021/11/06 08:15:58;;;;;;;9.33;8.33;;;12.30;99.90;;;;;;4929954;29;20198;-49
2021/11/06 08:18:23;;;;;;;9.23;8.20;;;12.60;99.90;;;;;;4930982;29;20422;-48
2021/11/06 08:20:50;;;;;;;12.20;10.00;;;12.60;99.90;;;;;;4931402;29;20230;-49
2021/11/06 08:23:16;;;;;;;9.93;8.57;;;12.70;99.90;;;;;;4931016;29;20211;-47
2021/11/06 08:25:41;;;;;;;9.57;8.40;;;12.90;99.90;;;;;;4931147;29;20526;-46
2021/11/06 08:28:07;;;;;;;9.50;8.17;;;12.80;99.90;;;;;;4930038;29;20182;-48
2021/11/06 08:30:32;;;;;;;9.07;8.17;;;12.90;99.90;;;;;;4930105;29;20722;-48
2021/11/06 08:32:59;;;;;;;8.67;7.77;;;13.00;99.90;;;;;;4943738;29;20752;-49
2021/11/06 08:35:29;;;;;;;9.10;8.30;;;13.00;99.90;;;;;;4930796;29;20630;-48
2021/11/06 08:37:55;;;;;;;8.33;7.53;;;13.10;99.90;;;;;;4929127;29;20795;-48
2021/11/06 08:40:21;;;;;;;9.87;8.20;;;13.20;99.90;;;;;;4928255;29;20422;-47
2021/11/06 08:42:47;;;;;;;7.87;7.17;;;13.30;99.90;;;;;;4930774;29;20494;-47
2021/11/06 08:45:14;;;;;;;8.03;7.23;;;13.40;99.80;;;;;;4928888;29;20505;-49
2021/11/06 08:47:42;;;;;;;8.40;7.60;;;13.70;98.70;;;;;;4930873;29;20240;-47
2021/11/06 08:50:14;;;;;;;8.40;7.60;;;13.90;97.30;;;;;;4921594;29;20528;-49
2021/11/06 08:52:40;;;;;;;8.80;8.00;;;14.10;98.00;;;;;;4931977;29;20881;-50
2021/11/06 08:55:07;;;;;;;7.80;7.00;;;14.30;97.00;;;;;;4931677;29;20434;-49
2021/11/06 08:57:34;;;;;;;7.57;6.87;;;14.60;96.00;;;;;;4932247;29;20457;-49
2021/11/06 09:00:05;;;;;;;7.40;6.80;;;14.80;95.80;;;;;;4932831;29;20446;-48
2021/11/06 09:02:30;;;;;;;7.77;6.97;;;14.90;94.70;;;;;;4928287;29;20532;-46
2021/11/06 09:04:56;;;;;;;8.20;7.40;;;15.10;93.20;;;;;;4930703;29;20442;-48
2021/11/06 09:07:22;;;;;;;7.47;6.70;;;15.30;92.80;;;;;;4923453;29;20218;-49
2021/11/06 09:09:47;;;;;;;8.10;7.40;;;15.10;91.60;;;;;;4923347;29;20568;-47
2021/11/06 09:12:13;;;;;;;7.57;6.80;;;14.90;92.30;;;;;;4923858;29;20662;-48
2021/11/06 09:14:39;;;;;;;6.60;5.97;;;15.20;92.50;;;;;;4922063;29;20236;-50
2021/11/06 09:17:05;;;;;;;7.30;6.70;;;15.30;91.20;;;;;;4922712;29;20630;-48
2021/11/06 09:19:31;;;;;;;6.47;5.97;;;15.50;90.90;;;;;;4923597;29;20449;-48
2021/11/06 09:21:56;;;;;;;6.50;6.10;;;16.00;90.80;;;;;;4924294;29;20688;-48
2021/11/06 09:24:22;;;;;;;6.60;6.10;;;16.30;86.00;;;;;;4922250;29;20500;-48
2021/11/06 09:26:48;;;;;;;6.87;6.37;;;16.20;85.60;;;;;;4923131;29;20193;-50
2021/11/06 09:29:16;;;;;;;6.90;6.30;;;15.80;85.10;;;;;;4921784;29;20194;-51
2021/11/06 09:31:42;;;;;;;6.87;6.27;;;15.60;85.10;;;;;;4920446;29;20225;-48
2021/11/06 09:34:09;;;;;;;6.67;6.10;;;15.50;87.80;;;;;;4935866;29;21258;-46
2021/11/06 09:36:36;;;;;;;6.70;6.10;;;15.60;86.00;;;;;;4936234;29;20952;-48
2021/11/06 09:39:05;;;;;;;6.63;6.13;;;15.70;87.90;;;;;;4940896;29;20917;-47
2021/11/06 09:41:31;;;;;;;7.37;6.67;;;15.90;87.30;;;;;;4938962;29;20999;-49
2021/11/06 09:43:57;;;;;;;7.80;6.87;;;16.30;87.60;;;;;;4940136;29;21136;-46
2021/11/06 09:46:24;;;;;;;6.37;5.87;;;16.70;82.30;;;;;;4940779;29;20454;-46
2021/11/06 09:48:50;;;;;;;7.37;6.73;;;16.80;83.50;;;;;;4942667;29;20453;-48
2021/11/06 09:51:18;;;;;;;7.03;6.50;;;17.20;81.20;;;;;;4941417;29;20488;-52
2021/11/06 09:53:46;;;;;;;7.90;7.10;;;17.10;80.20;;;;;;4941821;29;20182;-63
2021/11/06 09:56:16;;;;;;;7.13;6.50;;;17.30;79.10;;;;;;4940966;29;20488;-63
2021/11/06 09:58:42;;;;;;;6.70;6.20;;;17.30;80.50;;;;;;4942012;29;20439;-63
2021/11/06 10:01:08;;;;;;;7.17;6.57;;;16.90;77.60;;;;;;4933477;28;20442;-60
2021/11/06 10:03:35;;;;;;;6.97;5.70;;;17.10;78.90;;;;;;4938298;28;20864;-62
2021/11/06 10:06:03;;;;;;;6.70;6.30;;;17.40;75.40;;;;;;4940422;29;20430;-59
2021/11/06 10:08:35;;;;;;;6.03;5.60;;;17.00;74.80;;;;;;4939716;28;20438;-63
2021/11/06 10:11:09;;;;;;;7.00;6.47;;;16.80;76.10;;;;;;4939639;29;20559;-64
2021/11/06 10:13:55;;;;;;;7.07;6.40;;;17.60;76.30;;;;;;4933339;29;20591;-61
2021/11/06 10:16:47;;;;;;;6.30;5.80;;;17.80;72.60;;;;;;4936320;28;20598;-61
2021/11/06 10:19:45;;;;;;;7.30;6.70;;;16.50;75.80;;;;;;4938602;28;20438;-61
2021/11/06 10:22:25;;;;;;;7.50;6.90;;;15.50;80.70;;;;;;4939712;28;20437;-61
2021/11/06 10:24:54;;;;;;;7.30;6.70;;;15.10;81.20;;;;;;4940301;29;20425;-62
2021/11/06 10:27:31;;;;;;;7.40;6.80;;;15.40;81.60;;;;;;4939846;29;20782;-63
2021/11/06 10:30:16;;;;;;;7.30;6.70;;;15.30;80.10;;;;;;4939085;28;20852;-62
2021/11/06 10:33:04;;;;;;;7.33;6.73;;;14.10;83.10;;;;;;4937630;29;20485;-62
2021/11/06 10:35:36;;;;;;;7.10;6.53;;;14.10;84.90;;;;;;4937635;29;20442;-61
2021/11/06 10:38:09;;;;;;;7.03;6.53;;;14.40;85.00;;;;;;4940234;29;20432;-62
2021/11/06 10:40:56;;;;;;;7.27;6.70;;;14.40;85.20;;;;;;4938772;28;20503;-61
2021/11/06 10:43:23;;;;;;;7.00;6.50;;;14.50;84.10;;;;;;4940189;29;20484;-62
2021/11/06 10:45:52;;;;;;;8.17;7.50;;;14.90;83.40;;;;;;4937858;29;20467;-62
2021/11/06 10:48:20;;;;;;;6.57;6.00;;;14.80;83.60;;;;;;4940590;29;20634;-62
2021/11/06 10:50:54;;;;;;;7.67;7.07;;;15.00;84.10;;;;;;4940430;29;20528;-62
2021/11/06 10:53:33;;;;;;;7.00;6.40;;;14.60;83.50;;;;;;4938651;28;20437;-62
2021/11/06 10:56:01;;;;;;;6.63;6.03;;;14.50;83.20;;;;;;4938725;28;20485;-61
2021/11/06 10:58:27;;;;;;;6.57;6.07;;;14.60;83.00;;;;;;4940686;29;20440;-63
2021/11/06 11:00:54;;;;;;;7.43;6.70;;;14.40;82.20;;;;;;4938696;29;20432;-62
2021/11/06 11:03:32;;;;;;;7.00;6.40;;;14.20;84.00;;;;;;4938195;29;20492;-63
2021/11/06 11:06:00;;;;;;;7.00;6.37;;;14.10;86.00;;;;;;4939126;28;20958;-64
2021/11/06 11:08:30;;;;;;;7.20;6.60;;;14.00;86.90;;;;;;4940703;29;20480;-46
2021/11/06 11:11:05;;;;;;;7.07;6.57;;;14.50;85.80;;;;;;4939625;29;20443;-47
2021/11/06 11:13:31;;;;;;;6.60;6.10;;;15.10;80.70;;;;;;4940130;29;20941;-50
2021/11/06 11:16:12;;;;;;;6.53;5.97;;;15.10;80.70;;;;;;4938648;28;20448;-48
2021/11/06 11:18:39;;;;;;;6.17;5.67;;;15.00;79.10;;;;;;4940072;28;20181;-47
2021/11/06 11:21:21;;;;;;;6.23;5.83;;;15.00;79.10;;;;;;4939088;29;20492;-50
2021/11/06 11:23:49;;;;;;;7.13;6.43;;;15.10;80.90;;;;;;4940212;29;20520;-52
2021/11/06 11:26:17;;;;;;;6.37;5.87;;;15.20;79.40;;;;;;4940169;29;20440;-49
2021/11/06 11:28:43;;;;;;;6.33;5.83;;;15.60;79.00;;;;;;4939211;29;20436;-46
2021/11/06 11:31:09;;;;;;;6.90;6.00;;;16.30;74.20;;;;;;4935709;28;20480;-48
2021/11/06 11:33:36;;;;;;;6.87;6.33;;;16.10;72.90;;;;;;4943166;29;20225;-48
2021/11/06 11:36:06;;;;;;;6.40;6.00;;;15.50;74.80;;;;;;4940635;29;20738;-47
2021/11/06 11:38:34;;;;;;;7.23;6.37;;;15.10;77.70;;;;;;4935983;28;20876;-48
2021/11/06 11:41:08;;;;;;;7.30;6.70;;;14.90;77.60;;;;;;4944161;29;20519;-50
2021/11/06 11:44:16;;;;;;;6.83;6.23;;;15.50;78.40;;;;;;4943366;29;20440;-50
2021/11/06 11:46:48;;;;;;;6.97;6.47;;;16.20;75.60;;;;;;4936691;29;20448;-49
2021/11/06 11:49:14;;;;;;;6.27;5.80;;;16.50;72.80;;;;;;4944317;29;20442;-49
2021/11/06 11:51:39;;;;;;;7.17;6.50;;;16.90;71.50;;;;;;4941959;29;20813;-53
2021/11/06 11:54:08;;;;;;;6.90;6.30;;;17.10;68.00;;;;;;4946303;29;20418;-48
2021/11/06 11:56:35;;;;;;;6.73;6.30;;;17.10;68.20;;;;;;4947669;29;20286;-48
2021/11/06 11:59:02;;;;;;;7.00;6.40;;;17.40;68.00;;;;;;4948457;29;20429;-46
2021/11/06 12:01:29;;;;;;;6.70;6.20;;;17.80;65.90;;;;;;4946644;29;20994;-49
2021/11/06 12:03:57;;;;;;;5.90;5.50;;;18.20;65.00;;;;;;4941012;29;20445;-47
2021/11/06 12:06:37;;;;;;;6.67;6.17;;;18.80;64.70;;;;;;4926014;29;20449;-49
2021/11/06 12:09:03;;;;;;;6.90;6.40;;;18.80;60.30;;;;;;4944571;29;20832;-49
2021/11/06 12:11:33;;;;;;;6.50;6.10;;;18.70;61.10;;;;;;4947772;29;20568;-47
2021/11/06 12:14:13;;;;;;;7.13;6.60;;;18.20;59.50;;;;;;4946251;29;20299;-50
2021/11/06 12:16:46;;;;;;;6.60;6.20;;;17.10;63.80;;;;;;4942462;29;20481;-47
2021/11/06 12:19:11;;;;;;;6.03;5.60;;;17.20;65.00;;;;;;4945794;29;20440;-52
2021/11/06 12:21:42;;;;;;;7.27;6.67;;;17.50;65.30;;;;;;4946348;29;20435;-47
2021/11/06 12:24:11;;;;;;;6.90;6.40;;;17.20;63.90;;;;;;4947604;29;20950;-51
2021/11/06 12:26:45;;;;;;;6.43;6.00;;;17.10;66.60;;;;;;4948128;28;20438;-53
2021/11/06 12:29:10;;;;;;;6.43;6.03;;;16.90;65.70;;;;;;4947410;29;20453;-51
2021/11/06 12:31:43;;;;;;;6.70;6.20;;;16.50;67.40;;;;;;4950550;29;20461;-47
2021/11/06 12:34:30;;;;;;;7.47;6.87;;;16.10;66.90;;;;;;4913169;29;1101364;-50
2021/11/06 12:36:56;;;;;;;7.30;6.80;;;16.00;69.60;;;;;;4950132;29;20229;-48
2021/11/06 12:39:53;;;;;;;7.10;6.50;;;16.40;68.20;;;;;;4951920;29;20494;-51
2021/11/06 12:42:24;;;;;;;6.70;6.20;;;16.90;68.30;;;;;;4946695;29;20861;-51
2021/11/06 12:45:04;;;;;;;6.47;6.07;;;17.50;64.10;;;;;;4951210;29;20811;-51
2021/11/06 12:47:31;;;;;;;6.20;5.70;;;17.50;63.00;;;;;;4948098;29;20512;-48